Costa Pacifica — ICJA — position and weather

sailwx.info

Track history (hours):
 
Tides and Currents Weather Stations Pressure Air Temp Water Temp Dewpoint Dewpoint Depression Visibility Wind Speed Wind Dir Waves Ship Positions

Costa Pacifica

Last reported at 2017-Oct-17 18:19 UTC. Time now 2017-Oct-18 09:15 UTC.
Position N 40°56' E 001°48'.

Length 290 m; draft 8.3 m.

Type: Ship. MMSI: 247258100.

Date/timePositionNaut miles runAvg speedWind from/ knotsBaromVisibWave heightAir tempDewpointWater temp
2017-Oct-17 18:19N 40°56' E 001°48'517.6
2017-Oct-17 18:01N 41°00' E 001°52'917.7
2017-Oct-17 17:31N 41°07' E 002°01'917.1
2017-Oct-17 17:01N 41°13' E 002°08'6 0.5
2017-Oct-17 05:00N 41°19' E 002°10'5 9.7
2017-Oct-17 04:30N 41°15' E 002°13'8213.0
2017-Oct-16 22:08N 42°05' E 003°41'212.7
2017-Oct-16 21:57N 42°07' E 003°43'2612.7
2017-Oct-16 19:53N 42°26' E 004°07'615.0
2017-Oct-16 19:30N 42°31' E 004°12'1419.0
2017-Oct-16 18:47N 42°41' E 004°25'518.6
2017-Oct-16 18:30N 42°45' E 004°30'918.6
2017-Oct-16 18:01N 42°51' E 004°38'918.8
2017-Oct-16 17:30N 42°58' E 004°46'918.6
2017-Oct-16 17:00N 43°05' E 004°55'918.2
2017-Oct-16 16:30N 43°12' E 005°03'917.9
2017-Oct-16 16:00N 43°18' E 005°13'611.2
2017-Oct-16 15:30N 43°21' E 005°19'0 1.0
2017-Oct-16 15:00N 43°21' E 005°20'0 0.0
2017-Oct-16 14:30N 43°21' E 005°20'0 0.0
2017-Oct-16 13:30N 43°21' E 005°20'0 0.0
2017-Oct-16 13:00N 43°21' E 005°20'0 0.0
2017-Oct-16 12:29N 43°21' E 005°20'0 0.0
2017-Oct-16 11:56N 43°21' E 005°20'0 0.0
2017-Oct-16 11:29N 43°21' E 005°20'0 0.0
2017-Oct-16 10:59N 43°21' E 005°20'0 0.0
2017-Oct-16 10:29N 43°21' E 005°20'0 0.0
2017-Oct-16 09:58N 43°21' E 005°20'0 0.0
2017-Oct-16 09:25N 43°21' E 005°20'0 0.0
2017-Oct-16 08:55N 43°21' E 005°20'0 0.0
2017-Oct-16 08:22N 43°21' E 005°20'0 0.0
2017-Oct-16 08:00N 43°21' E 005°20'0 0.0
2017-Oct-16 07:30N 43°21' E 005°20'0 0.0
2017-Oct-16 07:00N 43°21' E 005°20'0 0.0
2017-Oct-16 06:30N 43°21' E 005°20'0 0.1
2017-Oct-16 06:00N 43°21' E 005°20'3 5.6
2017-Oct-16 05:30N 43°20' E 005°16'5 9.9
2017-Oct-16 05:00N 43°16' E 005°13'610.8
2017-Oct-16 04:29N 43°12' E 005°18'812.1
2017-Oct-16 03:48N 43°06' E 005°27'413.2
2017-Oct-16 03:30N 43°05' E 005°31'713.3
2017-Oct-16 03:00N 43°02' E 005°40'1013.6
2017-Oct-16 02:17N 42°58' E 005°52'913.8
2017-Oct-16 01:40N 42°54' E 006°02'213.7
2017-Oct-16 01:29N 42°53' E 006°05'713.7
2017-Oct-16 00:59N 42°53' E 006°15'1113.6
2017-Oct-16 00:11N 42°54' E 006°30'213.6
2017-Oct-16 00:00N 42°56' E 006°32'713.5
2017-Oct-15 23:30N 42°60' E 006°40'713.6
2017-Oct-15 23:00N 43°04' E 006°47'1013.5
2017-Oct-15 22:15N 43°10' E 006°58'313.1
2017-Oct-15 22:00N 43°12' E 007°02'612.9
2017-Oct-15 21:30N 43°15' E 007°09'613.0
2017-Oct-15 21:00N 43°19' E 007°16'612.9
2017-Oct-15 20:30N 43°23' E 007°23'713.9
2017-Oct-15 20:00N 43°27' E 007°31'918.7
2017-Oct-15 19:31N 43°33' E 007°41'1018.8
2017-Oct-15 18:58N 43°39' E 007°53'1218.8
2017-Oct-15 18:19N 43°46' E 008°06'618.5
2017-Oct-15 18:00N 43°49' E 008°13'918.5
2017-Oct-15 17:30N 43°57' E 008°20'918.3
2017-Oct-15 17:00N 44°04' E 008°28'917.7
2017-Oct-15 16:30N 44°12' E 008°34'714.2
2017-Oct-15 16:00N 44°19' E 008°31'1 2.4
2017-Oct-15 15:30N 44°19' E 008°29'0 0.0
2017-Oct-15 14:57N 44°19' E 008°29'0 0.0
2017-Oct-15 14:00N 44°19' E 008°29'0 0.0
2017-Oct-15 13:27N 44°19' E 008°29'0 0.0
2017-Oct-15 12:59N 44°19' E 008°29'0 0.0
2017-Oct-15 12:26N 44°19' E 008°29'0 0.0
2017-Oct-15 11:59N 44°19' E 008°29'0 0.0
2017-Oct-15 11:29N 44°19' E 008°29'0 0.0
2017-Oct-15 10:56N 44°19' E 008°29'0 0.0
2017-Oct-15 10:25N 44°19' E 008°29'0 0.0
2017-Oct-15 09:55N 44°19' E 008°29'0 0.0
2017-Oct-15 09:28N 44°19' E 008°29'0 0.0
2017-Oct-15 08:58N 44°19' E 008°29'0 0.0
2017-Oct-15 08:30N 44°19' E 008°29'0 0.0
2017-Oct-15 08:00N 44°19' E 008°29'0 0.0
2017-Oct-15 07:30N 44°19' E 008°29'0 0.0
2017-Oct-15 07:00N 44°19' E 008°29'0 0.0
2017-Oct-15 06:30N 44°19' E 008°29'0 0.0
2017-Oct-15 05:59N 44°19' E 008°29'0 0.0
2017-Oct-15 05:30N 44°19' E 008°29'1 2.6
2017-Oct-15 05:00N 44°19' E 008°31'4 8.5
2017-Oct-15 04:30N 44°15' E 008°34'612.8
2017-Oct-15 04:00N 44°10' E 008°38'612.7
2017-Oct-15 03:30N 44°04' E 008°43'612.6
2017-Oct-15 03:00N 43°59' E 008°48'612.7
2017-Oct-15 02:30N 43°54' E 008°52'816.6
2017-Oct-15 02:01N 43°47' E 008°58'1019.0
2017-Oct-15 01:30N 43°39' E 009°06'918.8
2017-Oct-15 01:01N 43°31' E 009°12'918.8
2017-Oct-15 00:31N 43°23' E 009°19'918.7
2017-Oct-15 00:00N 43°15' E 009°27'918.3
2017-Oct-14 23:30N 43°08' E 009°34'1118.0
2017-Oct-14 22:53N 42°57' E 009°40'717.3
2017-Oct-14 22:30N 42°52' E 009°45'918.2
2017-Oct-14 21:59N 42°48' E 009°57'817.5
2017-Oct-14 21:30N 42°42' E 010°05'1118.0
2017-Oct-14 20:53N 42°35' E 010°17'818.2
2017-Oct-14 20:28N 42°31' E 010°25'1018.1
2017-Oct-14 19:56N 42°25' E 010°36'818.0
2017-Oct-14 19:30N 42°19' E 010°43'1118.4
2017-Oct-14 18:55N 42°13' E 010°55'918.3
2017-Oct-14 18:26N 42°07' E 011°04'1117.9
2017-Oct-14 17:50N 42°06' E 011°19'718.6
2017-Oct-14 17:26N 42°05' E 011°29'1215.4
2017-Oct-14 16:39N 42°07' E 011°45'1 7.0
2017-Oct-14 16:30N 42°06' E 011°46'1 1.1
2017-Oct-14 15:58N 42°06' E 011°47'0 0.0
2017-Oct-14 15:28N 42°06' E 011°47'0 0.0
2017-Oct-14 05:12N 42°06' E 011°47'2 6.6
2017-Oct-14 04:54N 42°07' E 011°44'4 9.8
2017-Oct-14 04:29N 42°03' E 011°41'2114.7
2017-Oct-14 03:02N 41°44' E 011°29'018.5
2017-Oct-14 03:00N 41°43' E 011°29'1918.7
2017-Oct-14 01:59N 41°26' E 011°16'1118.4
2017-Oct-14 01:24N 41°17' E 011°10'1018.7
2017-Oct-14 00:53N 41°08' E 011°04'13918.7
2017-Oct-13 17:28N 39°05' E 009°41'918.2
2017-Oct-13 16:59N 38°59' E 009°34'816.9
2017-Oct-13 16:29N 39°02' E 009°24'917.0
2017-Oct-13 15:59N 39°06' E 009°14'714.9
2017-Oct-13 15:29N 39°11' E 009°07'2 0.3
2017-Oct-13 10:18N 39°13' E 009°06'0 0.0
2017-Oct-13 10:00N 39°13' E 009°06'0 0.0
2017-Oct-13 09:30N 39°13' E 009°06'0 0.0
2017-Oct-13 09:00N 39°13' E 009°06'0 0.0
2017-Oct-13 08:29N 39°13' E 009°06'0 0.0
2017-Oct-13 07:59N 39°13' E 009°06'0 0.0
2017-Oct-13 07:29N 39°13' E 009°06'0 0.0
2017-Oct-13 06:59N 39°13' E 009°06'0 0.0
2017-Oct-13 06:29N 39°13' E 009°06'0 0.0
2017-Oct-13 05:58N 39°13' E 009°06'0 0.4
2017-Oct-13 05:29N 39°12' E 009°07'1 2.9
2017-Oct-13 05:00N 39°11' E 009°06'611.4
2017-Oct-13 04:30N 39°05' E 009°07'917.0
2017-Oct-13 04:00N 38°57' E 009°05'918.4
2017-Oct-13 03:30N 38°50' E 008°57'918.2
2017-Oct-13 03:00N 38°45' E 008°47'918.2
2017-Oct-13 02:30N 38°42' E 008°36'918.5
2017-Oct-13 02:00N 38°43' E 008°24'815.9
2017-Oct-13 01:30N 38°44' E 008°14'612.8
2017-Oct-13 01:01N 38°44' E 008°06'1012.9
2017-Oct-13 00:16N 38°45' E 007°54'412.8
2017-Oct-12 23:58N 38°46' E 007°49'1212.9
2017-Oct-12 23:03N 38°46' E 007°34'012.9
2017-Oct-12 23:00N 38°46' E 007°33'1113.0
2017-Oct-12 22:10N 38°47' E 007°19'512.9
2017-Oct-12 21:45N 38°48' E 007°12'512.9
2017-Oct-12 21:24N 38°48' E 007°06'512.8
2017-Oct-12 21:00N 38°49' E 006°60'713.0
2017-Oct-12 20:28N 38°49' E 006°51'5612.6
2017-Oct-12 15:59N 38°54' E 005°39'712.6
2017-Oct-12 15:26N 38°55' E 005°30'4713.0
2017-Oct-12 11:51N 38°59' E 004°30'513.3
2017-Oct-12 11:30N 38°59' E 004°24'813.2
2017-Oct-12 10:53N 38°60' E 004°14'513.4
2017-Oct-12 10:28N 39°00' E 004°07'613.3
2017-Oct-12 09:59N 39°01' E 003°58'713.3
2017-Oct-12 09:26N 39°01' E 003°49'813.4
2017-Oct-12 08:49N 39°02' E 003°38'513.4
2017-Oct-12 08:27N 39°02' E 003°32'713.2
2017-Oct-12 07:57N 39°03' E 003°24'913.4
2017-Oct-12 07:17N 39°04' E 003°12'413.4
2017-Oct-12 06:59N 39°04' E 003°07'713.3
2017-Oct-12 06:27N 39°05' E 002°58'613.3
2017-Oct-12 06:00N 39°06' E 002°50'713.1
2017-Oct-12 05:30N 39°08' E 002°42'612.9
2017-Oct-12 05:00N 39°10' E 002°34'712.9
2017-Oct-12 04:29N 39°12' E 002°26'612.9
2017-Oct-12 03:59N 39°14' E 002°18'612.9
2017-Oct-12 03:30N 39°16' E 002°11'1813.2
2017-Oct-12 02:10N 39°23' E 001°50'213.7
2017-Oct-12 02:00N 39°24' E 001°47'92 3.0
2017-Oct-10 18:51N 40°56' E 001°47'512.6
2017-Oct-10 18:29N 40°59' E 001°51'612.7
2017-Oct-10 18:00N 41°04' E 001°57'612.7
2017-Oct-10 17:30N 41°09' E 002°02'916.2
2017-Oct-10 16:58N 41°15' E 002°10'4 0.3
2017-Oct-10 04:59N 41°19' E 002°10'5 9.2
2017-Oct-10 04:29N 41°15' E 002°13'12113.0
2017-Oct-09 19:10N 42°36' E 004°15'312.9
2017-Oct-09 18:58N 42°38' E 004°17'715.1
2017-Oct-09 18:30N 42°43' E 004°24'918.7
2017-Oct-09 18:00N 42°49' E 004°33'918.0
2017-Oct-09 17:30N 42°56' E 004°42'917.9
2017-Oct-09 17:01N 43°02' E 004°50'918.0
2017-Oct-09 16:31N 43°08' E 004°59'918.4
2017-Oct-09 16:00N 43°15' E 005°08'917.4
2017-Oct-09 15:30N 43°20' E 005°17'2 0.2
2017-Oct-09 05:20N 43°21' E 005°20'1 3.8
2017-Oct-09 04:59N 43°21' E 005°18'4 9.4
2017-Oct-09 04:30N 43°18' E 005°14'816.1
2017-Oct-09 04:00N 43°11' E 005°19'816.8
2017-Oct-09 03:30N 43°06' E 005°28'6511.8
2017-Oct-08 21:57N 43°09' E 006°58'613.1
2017-Oct-08 21:30N 43°13' E 007°04'713.2
2017-Oct-08 21:00N 43°16' E 007°12'713.1
2017-Oct-08 20:30N 43°20' E 007°19'713.0
2017-Oct-08 19:58N 43°25' E 007°26'1116.5
2017-Oct-08 19:19N 43°31' E 007°38'2919.2
2017-Oct-08 17:48N 43°48' E 008°11'619.1
2017-Oct-08 17:30N 43°52' E 008°17'919.1
2017-Oct-08 17:01N 43°60' E 008°24'918.9
2017-Oct-08 16:30N 44°08' E 008°31'816.6
2017-Oct-08 16:01N 44°16' E 008°34'4 8.0
2017-Oct-08 15:30N 44°19' E 008°30'1 1.7
2017-Oct-08 14:59N 44°19' E 008°29'0 0.0
2017-Oct-08 14:28N 44°19' E 008°29'0 0.0
2017-Oct-08 13:58N 44°19' E 008°29'0 0.0
2017-Oct-08 13:28N 44°19' E 008°29'0 0.0
2017-Oct-08 12:58N 44°19' E 008°29'0 0.0
2017-Oct-08 12:28N 44°19' E 008°29'0 0.0
2017-Oct-08 11:57N 44°19' E 008°29'0 0.0
2017-Oct-08 11:27N 44°19' E 008°29'0 0.0
2017-Oct-08 11:00N 44°19' E 008°29'0 0.0
2017-Oct-08 10:27N 44°19' E 008°29'0 0.0
2017-Oct-08 09:57N 44°19' E 008°29'0 0.0
2017-Oct-08 09:26N 44°19' E 008°29'0 0.0
2017-Oct-08 08:56N 44°19' E 008°29'0 0.0
2017-Oct-08 08:29N 44°19' E 008°29'0 0.0
2017-Oct-08 07:59N 44°19' E 008°29'0 0.0
2017-Oct-08 07:25N 44°19' E 008°29'0 0.0
2017-Oct-08 06:55N 44°19' E 008°29'0 0.0
2017-Oct-08 06:28N 44°19' E 008°29'0 0.0
2017-Oct-08 05:58N 44°19' E 008°29'0 0.7
2017-Oct-08 05:30N 44°19' E 008°30'3 6.2
2017-Oct-08 05:00N 44°17' E 008°33'612.1
2017-Oct-08 04:30N 44°12' E 008°37'612.8
2017-Oct-08 04:00N 44°06' E 008°41'612.6
2017-Oct-08 03:30N 44°01' E 008°46'612.3
2017-Oct-08 03:00N 43°56' E 008°50'917.6
2017-Oct-08 02:30N 43°48' E 008°57'918.9
2017-Oct-08 02:00N 43°40' E 009°04'1019.0
2017-Oct-08 01:30N 43°33' E 009°12'1019.1
2017-Oct-08 01:00N 43°24' E 009°19'1019.0
2017-Oct-08 00:30N 43°16' E 009°26'1018.9
2017-Oct-07 23:59N 43°08' E 009°32'918.3
2017-Oct-07 23:31N 43°00' E 009°38'1217.6
2017-Oct-07 22:51N 42°50' E 009°47'1918.5
2017-Oct-07 21:48N 42°40' E 010°09'618.4
2017-Oct-07 21:29N 42°36' E 010°15'1018.4
2017-Oct-07 20:56N 42°30' E 010°26'918.5
2017-Oct-07 20:27N 42°24' E 010°35'  
Track history (hours):
 
Tides and Currents Weather Stations Pressure Air Temp Water Temp Dewpoint Dewpoint Depression Visibility Wind Speed Wind Dir Waves Ship Positions

Costa Pacifica

Last reported at 2017-Oct-17 18:19 UTC. Time now 2017-Oct-18 09:15 UTC.
Position N 40°56' E 001°48'.

Length 290 m; draft 8.3 m.

Type: Ship. MMSI: 247258100.

Date/timePositionNaut miles runAvg speedWind from/ knotsBaromVisibWave heightAir tempDewpointWater temp
2017-Oct-17 18:19N 40°56' E 001°48'517.6
2017-Oct-17 18:01N 41°00' E 001°52'917.7
2017-Oct-17 17:31N 41°07' E 002°01'917.1
2017-Oct-17 17:01N 41°13' E 002°08'6 0.5
2017-Oct-17 05:00N 41°19' E 002°10'5 9.7
2017-Oct-17 04:30N 41°15' E 002°13'8213.0
2017-Oct-16 22:08N 42°05' E 003°41'212.7
2017-Oct-16 21:57N 42°07' E 003°43'2612.7
2017-Oct-16 19:53N 42°26' E 004°07'615.0
2017-Oct-16 19:30N 42°31' E 004°12'1419.0
2017-Oct-16 18:47N 42°41' E 004°25'518.6
2017-Oct-16 18:30N 42°45' E 004°30'918.6
2017-Oct-16 18:01N 42°51' E 004°38'918.8
2017-Oct-16 17:30N 42°58' E 004°46'918.6
2017-Oct-16 17:00N 43°05' E 004°55'918.2
2017-Oct-16 16:30N 43°12' E 005°03'917.9
2017-Oct-16 16:00N 43°18' E 005°13'611.2
2017-Oct-16 15:30N 43°21' E 005°19'0 1.0
2017-Oct-16 15:00N 43°21' E 005°20'0 0.0
2017-Oct-16 14:30N 43°21' E 005°20'0 0.0
2017-Oct-16 13:30N 43°21' E 005°20'0 0.0
2017-Oct-16 13:00N 43°21' E 005°20'0 0.0
2017-Oct-16 12:29N 43°21' E 005°20'0 0.0
2017-Oct-16 11:56N 43°21' E 005°20'0 0.0
2017-Oct-16 11:29N 43°21' E 005°20'0 0.0
2017-Oct-16 10:59N 43°21' E 005°20'0 0.0
2017-Oct-16 10:29N 43°21' E 005°20'0 0.0
2017-Oct-16 09:58N 43°21' E 005°20'0 0.0
2017-Oct-16 09:25N 43°21' E 005°20'0 0.0
2017-Oct-16 08:55N 43°21' E 005°20'0 0.0
2017-Oct-16 08:22N 43°21' E 005°20'0 0.0
2017-Oct-16 08:00N 43°21' E 005°20'0 0.0
2017-Oct-16 07:30N 43°21' E 005°20'0 0.0
2017-Oct-16 07:00N 43°21' E 005°20'0 0.0
2017-Oct-16 06:30N 43°21' E 005°20'0 0.1
2017-Oct-16 06:00N 43°21' E 005°20'3 5.6
2017-Oct-16 05:30N 43°20' E 005°16'5 9.9
2017-Oct-16 05:00N 43°16' E 005°13'610.8
2017-Oct-16 04:29N 43°12' E 005°18'812.1
2017-Oct-16 03:48N 43°06' E 005°27'413.2
2017-Oct-16 03:30N 43°05' E 005°31'713.3
2017-Oct-16 03:00N 43°02' E 005°40'1013.6
2017-Oct-16 02:17N 42°58' E 005°52'913.8
2017-Oct-16 01:40N 42°54' E 006°02'213.7
2017-Oct-16 01:29N 42°53' E 006°05'713.7
2017-Oct-16 00:59N 42°53' E 006°15'1113.6
2017-Oct-16 00:11N 42°54' E 006°30'213.6
2017-Oct-16 00:00N 42°56' E 006°32'713.5
2017-Oct-15 23:30N 42°60' E 006°40'713.6
2017-Oct-15 23:00N 43°04' E 006°47'1013.5
2017-Oct-15 22:15N 43°10' E 006°58'313.1
2017-Oct-15 22:00N 43°12' E 007°02'612.9
2017-Oct-15 21:30N 43°15' E 007°09'613.0
2017-Oct-15 21:00N 43°19' E 007°16'612.9
2017-Oct-15 20:30N 43°23' E 007°23'713.9
2017-Oct-15 20:00N 43°27' E 007°31'918.7
2017-Oct-15 19:31N 43°33' E 007°41'1018.8
2017-Oct-15 18:58N 43°39' E 007°53'1218.8
2017-Oct-15 18:19N 43°46' E 008°06'618.5
2017-Oct-15 18:00N 43°49' E 008°13'918.5
2017-Oct-15 17:30N 43°57' E 008°20'918.3
2017-Oct-15 17:00N 44°04' E 008°28'917.7
2017-Oct-15 16:30N 44°12' E 008°34'714.2
2017-Oct-15 16:00N 44°19' E 008°31'1 2.4
2017-Oct-15 15:30N 44°19' E 008°29'0 0.0
2017-Oct-15 14:57N 44°19' E 008°29'0 0.0
2017-Oct-15 14:00N 44°19' E 008°29'0 0.0
2017-Oct-15 13:27N 44°19' E 008°29'0 0.0
2017-Oct-15 12:59N 44°19' E 008°29'0 0.0
2017-Oct-15 12:26N 44°19' E 008°29'0 0.0
2017-Oct-15 11:59N 44°19' E 008°29'0 0.0
2017-Oct-15 11:29N 44°19' E 008°29'0 0.0
2017-Oct-15 10:56N 44°19' E 008°29'0 0.0
2017-Oct-15 10:25N 44°19' E 008°29'0 0.0
2017-Oct-15 09:55N 44°19' E 008°29'0 0.0
2017-Oct-15 09:28N 44°19' E 008°29'0 0.0
2017-Oct-15 08:58N 44°19' E 008°29'0 0.0
2017-Oct-15 08:30N 44°19' E 008°29'0 0.0
2017-Oct-15 08:00N 44°19' E 008°29'0 0.0
2017-Oct-15 07:30N 44°19' E 008°29'0 0.0
2017-Oct-15 07:00N 44°19' E 008°29'0 0.0
2017-Oct-15 06:30N 44°19' E 008°29'0 0.0
2017-Oct-15 05:59N 44°19' E 008°29'0 0.0
2017-Oct-15 05:30N 44°19' E 008°29'1 2.6
2017-Oct-15 05:00N 44°19' E 008°31'4 8.5
2017-Oct-15 04:30N 44°15' E 008°34'612.8
2017-Oct-15 04:00N 44°10' E 008°38'612.7
2017-Oct-15 03:30N 44°04' E 008°43'612.6
2017-Oct-15 03:00N 43°59' E 008°48'612.7
2017-Oct-15 02:30N 43°54' E 008°52'816.6
2017-Oct-15 02:01N 43°47' E 008°58'1019.0
2017-Oct-15 01:30N 43°39' E 009°06'918.8
2017-Oct-15 01:01N 43°31' E 009°12'918.8
2017-Oct-15 00:31N 43°23' E 009°19'918.7
2017-Oct-15 00:00N 43°15' E 009°27'918.3
2017-Oct-14 23:30N 43°08' E 009°34'1118.0
2017-Oct-14 22:53N 42°57' E 009°40'717.3
2017-Oct-14 22:30N 42°52' E 009°45'918.2
2017-Oct-14 21:59N 42°48' E 009°57'817.5
2017-Oct-14 21:30N 42°42' E 010°05'1118.0
2017-Oct-14 20:53N 42°35' E 010°17'818.2
2017-Oct-14 20:28N 42°31' E 010°25'1018.1
2017-Oct-14 19:56N 42°25' E 010°36'818.0
2017-Oct-14 19:30N 42°19' E 010°43'1118.4
2017-Oct-14 18:55N 42°13' E 010°55'918.3
2017-Oct-14 18:26N 42°07' E 011°04'1117.9
2017-Oct-14 17:50N 42°06' E 011°19'718.6
2017-Oct-14 17:26N 42°05' E 011°29'1215.4
2017-Oct-14 16:39N 42°07' E 011°45'1 7.0
2017-Oct-14 16:30N 42°06' E 011°46'1 1.1
2017-Oct-14 15:58N 42°06' E 011°47'0 0.0
2017-Oct-14 15:28N 42°06' E 011°47'0 0.0
2017-Oct-14 05:12N 42°06' E 011°47'2 6.6
2017-Oct-14 04:54N 42°07' E 011°44'4 9.8
2017-Oct-14 04:29N 42°03' E 011°41'2114.7
2017-Oct-14 03:02N 41°44' E 011°29'018.5
2017-Oct-14 03:00N 41°43' E 011°29'1918.7
2017-Oct-14 01:59N 41°26' E 011°16'1118.4
2017-Oct-14 01:24N 41°17' E 011°10'1018.7
2017-Oct-14 00:53N 41°08' E 011°04'13918.7
2017-Oct-13 17:28N 39°05' E 009°41'918.2
2017-Oct-13 16:59N 38°59' E 009°34'816.9
2017-Oct-13 16:29N 39°02' E 009°24'917.0
2017-Oct-13 15:59N 39°06' E 009°14'714.9
2017-Oct-13 15:29N 39°11' E 009°07'2 0.3
2017-Oct-13 10:18N 39°13' E 009°06'0 0.0
2017-Oct-13 10:00N 39°13' E 009°06'0 0.0
2017-Oct-13 09:30N 39°13' E 009°06'0 0.0
2017-Oct-13 09:00N 39°13' E 009°06'0 0.0
2017-Oct-13 08:29N 39°13' E 009°06'0 0.0
2017-Oct-13 07:59N 39°13' E 009°06'0 0.0
2017-Oct-13 07:29N 39°13' E 009°06'0 0.0
2017-Oct-13 06:59N 39°13' E 009°06'0 0.0
2017-Oct-13 06:29N 39°13' E 009°06'0 0.0
2017-Oct-13 05:58N 39°13' E 009°06'0 0.4
2017-Oct-13 05:29N 39°12' E 009°07'1 2.9
2017-Oct-13 05:00N 39°11' E 009°06'611.4
2017-Oct-13 04:30N 39°05' E 009°07'917.0
2017-Oct-13 04:00N 38°57' E 009°05'918.4
2017-Oct-13 03:30N 38°50' E 008°57'918.2
2017-Oct-13 03:00N 38°45' E 008°47'918.2
2017-Oct-13 02:30N 38°42' E 008°36'918.5
2017-Oct-13 02:00N 38°43' E 008°24'815.9
2017-Oct-13 01:30N 38°44' E 008°14'612.8
2017-Oct-13 01:01N 38°44' E 008°06'1012.9
2017-Oct-13 00:16N 38°45' E 007°54'412.8
2017-Oct-12 23:58N 38°46' E 007°49'1212.9
2017-Oct-12 23:03N 38°46' E 007°34'012.9
2017-Oct-12 23:00N 38°46' E 007°33'1113.0
2017-Oct-12 22:10N 38°47' E 007°19'512.9
2017-Oct-12 21:45N 38°48' E 007°12'512.9
2017-Oct-12 21:24N 38°48' E 007°06'512.8
2017-Oct-12 21:00N 38°49' E 006°60'713.0
2017-Oct-12 20:28N 38°49' E 006°51'5612.6
2017-Oct-12 15:59N 38°54' E 005°39'712.6
2017-Oct-12 15:26N 38°55' E 005°30'4713.0
2017-Oct-12 11:51N 38°59' E 004°30'513.3
2017-Oct-12 11:30N 38°59' E 004°24'813.2
2017-Oct-12 10:53N 38°60' E 004°14'513.4
2017-Oct-12 10:28N 39°00' E 004°07'613.3
2017-Oct-12 09:59N 39°01' E 003°58'713.3
2017-Oct-12 09:26N 39°01' E 003°49'813.4
2017-Oct-12 08:49N 39°02' E 003°38'513.4
2017-Oct-12 08:27N 39°02' E 003°32'713.2
2017-Oct-12 07:57N 39°03' E 003°24'913.4
2017-Oct-12 07:17N 39°04' E 003°12'413.4
2017-Oct-12 06:59N 39°04' E 003°07'713.3
2017-Oct-12 06:27N 39°05' E 002°58'613.3
2017-Oct-12 06:00N 39°06' E 002°50'713.1
2017-Oct-12 05:30N 39°08' E 002°42'612.9
2017-Oct-12 05:00N 39°10' E 002°34'712.9
2017-Oct-12 04:29N 39°12' E 002°26'612.9
2017-Oct-12 03:59N 39°14' E 002°18'612.9
2017-Oct-12 03:30N 39°16' E 002°11'1813.2
2017-Oct-12 02:10N 39°23' E 001°50'213.7
2017-Oct-12 02:00N 39°24' E 001°47'92 3.0
2017-Oct-10 18:51N 40°56' E 001°47'512.6
2017-Oct-10 18:29N 40°59' E 001°51'612.7
2017-Oct-10 18:00N 41°04' E 001°57'612.7
2017-Oct-10 17:30N 41°09' E 002°02'916.2
2017-Oct-10 16:58N 41°15' E 002°10'4 0.3
2017-Oct-10 04:59N 41°19' E 002°10'5 9.2
2017-Oct-10 04:29N 41°15' E 002°13'12113.0
2017-Oct-09 19:10N 42°36' E 004°15'312.9
2017-Oct-09 18:58N 42°38' E 004°17'715.1
2017-Oct-09 18:30N 42°43' E 004°24'918.7
2017-Oct-09 18:00N 42°49' E 004°33'918.0
2017-Oct-09 17:30N 42°56' E 004°42'917.9
2017-Oct-09 17:01N 43°02' E 004°50'918.0
2017-Oct-09 16:31N 43°08' E 004°59'918.4
2017-Oct-09 16:00N 43°15' E 005°08'917.4
2017-Oct-09 15:30N 43°20' E 005°17'2 0.2
2017-Oct-09 05:20N 43°21' E 005°20'1 3.8
2017-Oct-09 04:59N 43°21' E 005°18'4 9.4
2017-Oct-09 04:30N 43°18' E 005°14'816.1
2017-Oct-09 04:00N 43°11' E 005°19'816.8
2017-Oct-09 03:30N 43°06' E 005°28'6511.8
2017-Oct-08 21:57N 43°09' E 006°58'613.1
2017-Oct-08 21:30N 43°13' E 007°04'713.2
2017-Oct-08 21:00N 43°16' E 007°12'713.1
2017-Oct-08 20:30N 43°20' E 007°19'713.0
2017-Oct-08 19:58N 43°25' E 007°26'1116.5
2017-Oct-08 19:19N 43°31' E 007°38'2919.2
2017-Oct-08 17:48N 43°48' E 008°11'619.1
2017-Oct-08 17:30N 43°52' E 008°17'919.1
2017-Oct-08 17:01N 43°60' E 008°24'918.9
2017-Oct-08 16:30N 44°08' E 008°31'816.6
2017-Oct-08 16:01N 44°16' E 008°34'4 8.0
2017-Oct-08 15:30N 44°19' E 008°30'1 1.7
2017-Oct-08 14:59N 44°19' E 008°29'0 0.0
2017-Oct-08 14:28N 44°19' E 008°29'0 0.0
2017-Oct-08 13:58N 44°19' E 008°29'0 0.0
2017-Oct-08 13:28N 44°19' E 008°29'0 0.0
2017-Oct-08 12:58N 44°19' E 008°29'0 0.0
2017-Oct-08 12:28N 44°19' E 008°29'0 0.0
2017-Oct-08 11:57N 44°19' E 008°29'0 0.0
2017-Oct-08 11:27N 44°19' E 008°29'0 0.0
2017-Oct-08 11:00N 44°19' E 008°29'0 0.0
2017-Oct-08 10:27N 44°19' E 008°29'0 0.0
2017-Oct-08 09:57N 44°19' E 008°29'0 0.0
2017-Oct-08 09:26N 44°19' E 008°29'0 0.0
2017-Oct-08 08:56N 44°19' E 008°29'0 0.0
2017-Oct-08 08:29N 44°19' E 008°29'0 0.0
2017-Oct-08 07:59N 44°19' E 008°29'0 0.0
2017-Oct-08 07:25N 44°19' E 008°29'0 0.0
2017-Oct-08 06:55N 44°19' E 008°29'0 0.0
2017-Oct-08 06:28N 44°19' E 008°29'0 0.0
2017-Oct-08 05:58N 44°19' E 008°29'0 0.7
2017-Oct-08 05:30N 44°19' E 008°30'3 6.2
2017-Oct-08 05:00N 44°17' E 008°33'612.1
2017-Oct-08 04:30N 44°12' E 008°37'612.8
2017-Oct-08 04:00N 44°06' E 008°41'612.6
2017-Oct-08 03:30N 44°01' E 008°46'612.3
2017-Oct-08 03:00N 43°56' E 008°50'917.6
2017-Oct-08 02:30N 43°48' E 008°57'918.9
2017-Oct-08 02:00N 43°40' E 009°04'1019.0
2017-Oct-08 01:30N 43°33' E 009°12'1019.1
2017-Oct-08 01:00N 43°24' E 009°19'1019.0
2017-Oct-08 00:30N 43°16' E 009°26'1018.9
2017-Oct-07 23:59N 43°08' E 009°32'918.3
2017-Oct-07 23:31N 43°00' E 009°38'1217.6
2017-Oct-07 22:51N 42°50' E 009°47'1918.5
2017-Oct-07 21:48N 42°40' E 010°09'618.4
2017-Oct-07 21:29N 42°36' E 010°15'1018.4
2017-Oct-07 20:56N 42°30' E 010°26'918.5
2017-Oct-07 20:27N 42°24' E 010°35'  

Dump ship's entire track history